Terminal Aerodrome Forecast
Issued by NWS San Angelo, TX

Home | Current Version | Previous Version | Text Only | Print | Product List | Glossary On
Versions: 1 2 3 4 5 6 7 8 9 10 11 12 13 14 15 16 17 18 19 20
000
FTUS44 KSJT 191400 AAA
TAFSJT
TAF AMD
KSJT 191445Z 1915/2012 VRB06KT P6SM OVC004
     FM191800 VRB06KT P6SM OVC012
     FM192000 VRB06KT P6SM BKN020
     FM192200 VRB06KT P6SM SCT025 BKN035
     FM200200 VRB06KT P6SM BKN025=

USA.gov is the U.S. government's official web portal to all federal, state and local government web resources and services.